Time;durP1;ratioP1;P1;durP2;ratioP2;P2;SDS_P1;SDS_P2;PMS_P1;PMS_P2;Temp;Humidity;BMP_temperature;BMP_pressure;BME280_temperature;BME280_humidity;BME280_pressure;Samples;Min_cycle;Max_cycle;Signal;HPM_P1;HPM_P2
2021/04/01 00:01:00;;;;;;;8.95;4.43;;;;;;;;;;5053875;28;20025;-72
2021/04/01 00:03:26;;;;;;;11.52;4.70;;;;;;;;;;5052770;28;20025;-72
2021/04/01 00:05:52;;;;;;;14.57;6.40;;;;;;;;;;5053370;28;20078;-72
2021/04/01 00:08:18;;;;;;;12.98;6.60;;;;;;;;;;5053842;28;20102;-72
2021/04/01 00:10:45;;;;;;;12.27;6.20;;;;;;;;;;5053301;28;20424;-72
2021/04/01 00:13:13;;;;;;;10.50;5.28;;;;;;;;;;5053729;28;20096;-72
2021/04/01 00:15:41;;;;;;;9.48;5.30;;;;;;;;;;5052487;28;20435;-72
2021/04/01 00:18:08;;;;;;;8.23;4.55;;;;;;;;;;5053258;28;20021;-72
2021/04/01 00:20:34;;;;;;;8.60;4.63;;;;;;;;;;5052129;28;20393;-72
2021/04/01 00:23:00;;;;;;;7.45;3.85;;;;;;;;;;5053425;28;20029;-73
2021/04/01 00:25:26;;;;;;;10.65;5.20;;;;;;;;;;5053080;28;20029;-72
2021/04/01 00:27:53;;;;;;;8.02;4.38;;;;;;;;;;5053268;28;20420;-72
2021/04/01 00:30:19;;;;;;;11.43;5.05;;;;;;;;;;5052037;28;20029;-73
2021/04/01 00:32:46;;;;;;;6.95;3.95;;;;;;;;;;5052940;28;20021;-73
2021/04/01 00:35:13;;;;;;;8.48;4.65;;;;;;;;;;5053409;28;20103;-73
2021/04/01 00:37:39;;;;;;;9.18;4.68;;;;;;;;;;5053104;28;20108;-72
2021/04/01 00:40:05;;;;;;;12.57;6.20;;;;;;;;;;5052485;28;20068;-72
2021/04/01 00:42:32;;;;;;;10.13;5.20;;;;;;;;;;5053078;28;20500;-72
2021/04/01 00:45:03;;;;;;;9.50;4.80;;;;;;;;;;5051660;28;20064;-72
2021/04/01 00:47:36;;;;;;;10.32;5.40;;;;;;;;;;5052619;28;20017;-72
2021/04/01 00:50:02;;;;;;;12.15;5.50;;;;;;;;;;5051694;28;20049;-72
2021/04/01 00:52:29;;;;;;;10.07;5.43;;;;;;;;;;5053060;28;20276;-72
2021/04/01 00:54:55;;;;;;;10.43;4.88;;;;;;;;;;5051330;28;20024;-73
2021/04/01 00:57:21;;;;;;;10.15;5.28;;;;;;;;;;5052757;28;20032;-72
2021/04/01 00:59:48;;;;;;;9.80;5.43;;;;;;;;;;5052735;28;20390;-72
2021/04/01 01:02:14;;;;;;;7.63;4.38;;;;;;;;;;5052551;28;20025;-72
2021/04/01 01:04:40;;;;;;;10.35;5.30;;;;;;;;;;5052678;28;20036;-72
2021/04/01 01:07:07;;;;;;;8.98;4.72;;;;;;;;;;5052195;28;20084;-72
2021/04/01 01:09:33;;;;;;;11.73;4.70;;;;;;;;;;5052726;28;20090;-73
2021/04/01 01:11:59;;;;;;;9.25;4.20;;;;;;;;;;5052757;28;20092;-72
2021/04/01 01:14:25;;;;;;;8.73;4.50;;;;;;;;;;5051978;28;20052;-73
2021/04/01 01:16:52;;;;;;;7.45;3.55;;;;;;;;;;5051097;28;20028;-72
2021/04/01 01:19:19;;;;;;;8.65;4.55;;;;;;;;;;5051078;28;20433;-72
2021/04/01 01:21:45;;;;;;;7.60;3.90;;;;;;;;;;5050643;28;20492;-72
2021/04/01 01:24:15;;;;;;;9.07;4.40;;;;;;;;;;5052489;28;20036;-72
2021/04/01 01:26:41;;;;;;;8.40;4.10;;;;;;;;;;5052296;28;20021;-73
2021/04/01 01:29:09;;;;;;;9.05;4.97;;;;;;;;;;5052409;28;20116;-72
2021/04/01 01:31:40;;;;;;;8.50;4.45;;;;;;;;;;5052492;28;20029;-73
2021/04/01 01:34:06;;;;;;;10.57;4.72;;;;;;;;;;5052352;28;20198;-73
2021/04/01 01:36:33;;;;;;;9.38;4.45;;;;;;;;;;5050517;28;20052;-72
2021/04/01 01:38:59;;;;;;;7.90;4.00;;;;;;;;;;5050725;28;20071;-72
2021/04/01 01:41:25;;;;;;;6.95;3.97;;;;;;;;;;5052244;28;20074;-72
2021/04/01 01:43:53;;;;;;;9.13;3.53;;;;;;;;;;5050605;28;20048;-72
2021/04/01 01:46:19;;;;;;;5.20;3.10;;;;;;;;;;5052540;28;20437;-72
2021/04/01 01:48:46;;;;;;;6.47;3.22;;;;;;;;;;5051003;28;20032;-72
2021/04/01 01:51:12;;;;;;;8.85;3.65;;;;;;;;;;5052003;28;20434;-73
2021/04/01 01:53:59;;;;;;;6.53;3.13;;;;;;;;;;5110288;27;20380;-74
2021/04/01 01:56:26;;;;;;;4.70;2.55;;;;;;;;;;5109856;28;20023;-73
2021/04/01 01:59:37;;;;;;;9.02;3.80;;;;;;;;;;5110247;27;20388;-74
2021/04/01 02:02:03;;;;;;;6.85;4.28;;;;;;;;;;5110332;28;20028;-73
2021/04/01 02:04:29;;;;;;;7.25;4.03;;;;;;;;;;5108566;28;20077;-73
2021/04/01 02:06:55;;;;;;;8.23;4.20;;;;;;;;;;5110174;28;20028;-73
2021/04/01 02:09:22;;;;;;;9.77;4.63;;;;;;;;;;5110215;28;20019;-73
2021/04/01 02:11:48;;;;;;;7.25;4.07;;;;;;;;;;5109888;28;20475;-71
2021/04/01 02:14:14;;;;;;;8.07;4.03;;;;;;;;;;5110054;28;20039;-71
2021/04/01 02:16:40;;;;;;;10.65;4.45;;;;;;;;;;5108584;28;20042;-72
2021/04/01 02:19:07;;;;;;;11.38;4.00;;;;;;;;;;5108100;28;20090;-72
2021/04/01 02:21:33;;;;;;;7.53;3.50;;;;;;;;;;5108602;28;20020;-71
2021/04/01 02:23:59;;;;;;;7.88;3.80;;;;;;;;;;5109856;28;20031;-72
2021/04/01 02:26:25;;;;;;;7.13;3.17;;;;;;;;;;5109466;28;20034;-71
2021/04/01 02:28:52;;;;;;;7.38;3.55;;;;;;;;;;5109780;28;20107;-72
2021/04/01 02:31:21;;;;;;;5.50;3.15;;;;;;;;;;5109495;28;20027;-72
2021/04/01 02:33:47;;;;;;;7.03;3.42;;;;;;;;;;5109711;28;20026;-72
2021/04/01 02:36:14;;;;;;;6.63;3.30;;;;;;;;;;5109635;28;20027;-72
2021/04/01 02:38:40;;;;;;;8.25;3.60;;;;;;;;;;5109415;28;20032;-72
2021/04/01 02:41:06;;;;;;;8.88;4.18;;;;;;;;;;5109561;28;20468;-72
2021/04/01 02:43:33;;;;;;;9.00;4.57;;;;;;;;;;5108345;28;20028;-72
2021/04/01 02:46:06;;;;;;;11.70;5.25;;;;;;;;;;5109057;28;20357;-72
2021/04/01 02:48:32;;;;;;;;;;;;;;;;;;5109902;28;20019;-72
2021/04/01 02:50:58;;;;;;;8.75;4.78;;;;;;;;;;5109546;28;20396;-72
2021/04/01 02:53:24;;;;;;;9.27;4.53;;;;;;;;;;5107658;28;20028;-72
2021/04/01 02:55:50;;;;;;;8.65;3.97;;;;;;;;;;5109182;28;20082;-72
2021/04/01 02:58:17;;;;;;;8.82;4.30;;;;;;;;;;5107540;28;20067;-71
2021/04/01 03:00:44;;;;;;;7.43;4.10;;;;;;;;;;5108844;28;20016;-73
2021/04/01 03:03:18;;;;;;;8.93;4.25;;;;;;;;;;5109063;28;20523;-72
2021/04/01 03:05:44;;;;;;;7.55;3.80;;;;;;;;;;5108986;28;20024;-72
2021/04/01 03:08:11;;;;;;;7.57;4.25;;;;;;;;;;5107420;28;20024;-71
2021/04/01 03:10:37;;;;;;;8.13;4.00;;;;;;;;;;5097288;28;20473;-71
2021/04/01 03:13:03;;;;;;;8.48;3.80;;;;;;;;;;5095411;28;20067;-73
2021/04/01 03:15:29;;;;;;;7.60;3.90;;;;;;;;;;5094920;28;20468;-72
2021/04/01 03:17:55;;;;;;;9.23;3.40;;;;;;;;;;5095120;28;20024;-72
2021/04/01 03:20:22;;;;;;;7.72;3.70;;;;;;;;;;5095145;28;20540;-72
2021/04/01 03:22:48;;;;;;;7.15;3.45;;;;;;;;;;5094792;28;20518;-72
2021/04/01 03:25:14;;;;;;;6.28;3.33;;;;;;;;;;5095123;28;20058;-72
2021/04/01 03:27:41;;;;;;;8.15;4.70;;;;;;;;;;5094553;28;20028;-72
2021/04/01 03:30:12;;;;;;;7.55;4.10;;;;;;;;;;5095186;28;20016;-72
2021/04/01 03:32:39;;;;;;;8.93;4.72;;;;;;;;;;5095247;28;20028;-72
2021/04/01 03:35:06;;;;;;;9.35;3.75;;;;;;;;;;5094537;28;20024;-73
2021/04/01 03:37:33;;;;;;;9.13;4.82;;;;;;;;;;5094866;28;20024;-72
2021/04/01 03:39:59;;;;;;;12.02;6.05;;;;;;;;;;5095429;28;20055;-72
2021/04/01 03:42:26;;;;;;;10.57;5.05;;;;;;;;;;5094268;28;20031;-72
2021/04/01 03:44:54;;;;;;;11.80;5.40;;;;;;;;;;5093496;28;20028;-72
2021/04/01 03:47:21;;;;;;;8.63;4.88;;;;;;;;;;5094633;28;20027;-72
2021/04/01 03:49:47;;;;;;;9.10;3.60;;;;;;;;;;5094359;28;20031;-73
2021/04/01 03:52:13;;;;;;;7.95;4.20;;;;;;;;;;5095049;28;20450;-72
2021/04/01 03:54:41;;;;;;;10.02;5.15;;;;;;;;;;5094718;28;20396;-72
2021/04/01 03:57:08;;;;;;;9.90;5.43;;;;;;;;;;5094045;28;20043;-72
2021/04/01 04:05:04;;;;;;;16.00;7.60;;;;;;;;;;5094033;28;20086;-73
2021/04/01 04:10:06;;;;;;;11.35;5.82;;;;;;;;;;5093922;28;20024;-74
2021/04/01 04:15:22;;;;;;;10.65;5.40;;;;;;;;;;5094471;28;20073;-73
2021/04/01 04:17:49;;;;;;;11.30;5.38;;;;;;;;;;5093593;28;20024;-73
2021/04/01 04:20:15;;;;;;;9.25;5.45;;;;;;;;;;5093950;28;20035;-71
2021/04/01 04:22:42;;;;;;;9.32;5.60;;;;;;;;;;5091805;28;20028;-71
2021/04/01 04:25:11;;;;;;;10.13;5.38;;;;;;;;;;5093615;28;20038;-75
2021/04/01 04:30:22;;;;;;;9.95;5.88;;;;;;;;;;5092022;28;20373;-76
2021/04/01 04:32:49;;;;;;;10.43;6.13;;;;;;;;;;5093100;28;20099;-75
2021/04/01 04:35:15;;;;;;;13.07;7.55;;;;;;;;;;5093411;28;20567;-75
2021/04/01 04:37:41;;;;;;;11.38;6.68;;;;;;;;;;5093845;28;20123;-76
2021/04/01 04:40:08;;;;;;;16.55;7.65;;;;;;;;;;5093490;28;20040;-74
2021/04/01 04:42:34;;;;;;;12.63;6.57;;;;;;;;;;5092903;28;20032;-74
2021/04/01 04:45:01;;;;;;;11.23;6.10;;;;;;;;;;5092148;28;20107;-74
2021/04/01 04:47:27;;;;;;;19.52;9.65;;;;;;;;;;5092486;28;20135;-75
2021/04/01 04:49:53;;;;;;;14.88;7.18;;;;;;;;;;5093398;28;20031;-74
2021/04/01 04:52:21;;;;;;;10.35;6.35;;;;;;;;;;5092467;28;20423;-73
2021/04/01 04:54:47;;;;;;;11.43;6.57;;;;;;;;;;5093089;28;20024;-74
2021/04/01 05:05:00;;;;;;;13.27;7.10;;;;;;;;;;5093488;28;20035;-75
2021/04/01 05:07:27;;;;;;;13.15;6.75;;;;;;;;;;5091592;28;20460;-74
2021/04/01 05:09:53;;;;;;;14.48;7.25;;;;;;;;;;5090682;28;20024;-75
2021/04/01 05:12:19;;;;;;;13.18;7.55;;;;;;;;;;5091232;28;20095;-71
2021/04/01 05:14:46;;;;;;;14.85;7.10;;;;;;;;;;5090887;28;20099;-71
2021/04/01 05:17:16;;;;;;;13.25;6.70;;;;;;;;;;5090748;28;20381;-72
2021/04/01 05:19:42;;;;;;;13.10;6.68;;;;;;;;;;5091375;28;20531;-72
2021/04/01 05:22:19;;;;;;;18.08;7.10;;;;;;;;;;5091117;28;20408;-72
2021/04/01 05:24:45;;;;;;;16.65;7.47;;;;;;;;;;5091795;28;20070;-72
2021/04/01 05:27:24;;;;;;;12.10;6.65;;;;;;;;;;5091173;28;20476;-72
2021/04/01 05:30:01;;;;;;;16.25;7.90;;;;;;;;;;5091625;28;20028;-72
2021/04/01 05:32:28;;;;;;;13.32;8.15;;;;;;;;;;5092626;28;20111;-73
2021/04/01 05:34:55;;;;;;;12.73;6.60;;;;;;;;;;5092618;28;20048;-73
2021/04/01 05:37:25;;;;;;;11.82;5.63;;;;;;;;;;5092656;28;20073;-74
2021/04/01 05:39:52;;;;;;;10.52;5.85;;;;;;;;;;5092775;28;20039;-74
2021/04/01 05:42:20;;;;;;;13.68;6.45;;;;;;;;;;5091071;28;20020;-74
2021/04/01 05:44:53;;;;;;;11.93;7.03;;;;;;;;;;5092401;28;20055;-73
2021/04/01 05:47:34;;;;;;;12.48;7.60;;;;;;;;;;5092657;28;20519;-73
2021/04/01 06:02:44;;;;;;;14.85;8.15;;;;;;;;;;5069146;28;20041;-74
2021/04/01 06:08:13;;;;;;;15.73;6.50;;;;;;;;;;5088580;27;20378;-78
2021/04/01 06:12:23;;;;;;;15.00;7.53;;;;;;;;;;5131084;27;20112;-78
2021/04/01 06:14:52;;;;;;;14.07;7.53;;;;;;;;;;5092166;28;20394;-77
2021/04/01 06:17:19;;;;;;;15.30;7.10;;;;;;;;;;5109904;28;20386;-75
2021/04/01 06:19:48;;;;;;;17.10;8.18;;;;;;;;;;5110071;28;20429;-78
2021/04/01 06:22:15;;;;;;;17.83;7.50;;;;;;;;;;5110284;28;20028;-79
2021/04/01 06:24:44;;;;;;;12.38;8.02;;;;;;;;;;5109834;28;20081;-78
2021/04/01 06:27:15;;;;;;;15.45;7.88;;;;;;;;;;5110339;28;20510;-79
2021/04/01 06:30:10;;;;;;;11.38;6.88;;;;;;;;;;5110189;28;20028;-78
2021/04/01 06:32:38;;;;;;;9.85;6.10;;;;;;;;;;5110084;28;20068;-79
2021/04/01 06:35:24;;;;;;;12.38;6.78;;;;;;;;;;5110252;28;20020;-78
2021/04/01 06:40:38;;;;;;;10.82;5.63;;;;;;;;;;5109230;28;20024;-77
2021/04/01 06:44:45;;;;;;;13.02;6.68;;;;;;;;;;5069418;28;20728;-76
2021/04/01 06:47:13;;;;;;;13.93;6.32;;;;;;;;;;5069826;28;20548;-76
2021/04/01 06:50:27;;;;;;;13.63;6.30;;;;;;;;;;5069642;28;20079;-75
2021/04/01 06:52:41;;;;;;;10.85;6.35;;;;;;;;;;5068806;28;20028;-75
2021/04/01 06:55:13;;;;;;;10.73;5.78;;;;;;;;;;5069455;28;20078;-78
2021/04/01 07:04:33;;;;;;;13.15;6.78;;;;;;;;;;5069681;28;20388;-79
2021/04/01 07:07:08;;;;;;;11.55;5.90;;;;;;;;;;5069332;28;20090;-77
2021/04/01 07:09:52;;;;;;;15.63;7.60;;;;;;;;;;5069616;28;20208;-78
2021/04/01 07:12:28;;;;;;;13.55;5.93;;;;;;;;;;5067634;28;20021;-78
2021/04/01 07:15:08;;;;;;;9.20;5.40;;;;;;;;;;5067380;28;20814;-78
2021/04/01 07:22:25;;;;;;;18.33;6.25;;;;;;;;;;5068990;28;20380;-78
2021/04/01 07:48:41;;;;;;;9.82;5.93;;;;;;;;;;5123504;28;20054;-79
2021/04/01 07:51:12;;;;;;;12.63;6.05;;;;;;;;;;5130523;28;20043;-77
2021/04/01 07:53:39;;;;;;;13.27;6.38;;;;;;;;;;5130209;28;20391;-75
2021/04/01 07:56:20;;;;;;;14.50;6.57;;;;;;;;;;5117304;28;20024;-76
2021/04/01 08:02:02;;;;;;;12.07;5.65;;;;;;;;;;5098818;28;20023;-76
2021/04/01 08:04:31;;;;;;;14.50;6.68;;;;;;;;;;5108883;28;20031;-78
2021/04/01 08:07:10;;;;;;;12.10;6.22;;;;;;;;;;5109265;28;20016;-79
2021/04/01 08:09:39;;;;;;;12.65;6.18;;;;;;;;;;5109079;28;20028;-78
2021/04/01 08:12:12;;;;;;;13.43;4.85;;;;;;;;;;5108091;28;20437;-78
2021/04/01 08:14:43;;;;;;;9.07;5.25;;;;;;;;;;5108616;28;20028;-78
2021/04/01 08:17:20;;;;;;;11.00;4.60;;;;;;;;;;5108385;28;20372;-76
2021/04/01 08:19:51;;;;;;;12.38;5.25;;;;;;;;;;5109439;28;20024;-77
2021/04/01 08:22:25;;;;;;;9.15;4.75;;;;;;;;;;5109233;28;20111;-77
2021/04/01 08:31:59;;;;;;;8.38;4.45;;;;;;;;;;5067353;28;20055;-78
2021/04/01 08:34:48;;;;;;;9.55;5.40;;;;;;;;;;5109280;27;20395;-78
2021/04/01 08:37:15;;;;;;;9.98;5.50;;;;;;;;;;5108034;28;20028;-76
2021/04/01 08:39:44;;;;;;;10.73;5.65;;;;;;;;;;5109838;28;20024;-79
2021/04/01 08:43:40;;;;;;;9.65;5.18;;;;;;;;;;5067567;28;20465;-71
2021/04/01 08:46:21;;;;;;;8.68;4.80;;;;;;;;;;5108484;27;20389;-76
2021/04/01 08:49:01;;;;;;;9.10;5.25;;;;;;;;;;5109762;28;20073;-75
2021/04/01 08:52:12;;;;;;;8.48;4.70;;;;;;;;;;5129736;27;20312;-73
2021/04/01 08:54:38;;;;;;;9.80;5.00;;;;;;;;;;5108440;28;20024;-75
2021/04/01 08:57:28;;;;;;;11.35;5.10;;;;;;;;;;5109428;28;20235;-75
2021/04/01 09:00:00;;;;;;;9.00;5.10;;;;;;;;;;5107048;28;20024;-76
2021/04/01 09:02:27;;;;;;;7.03;4.28;;;;;;;;;;5098479;28;20024;-75
2021/04/01 09:04:54;;;;;;;9.00;4.80;;;;;;;;;;5097092;28;20013;-77
2021/04/01 09:09:14;;;;;;;12.02;4.97;;;;;;;;;;5068409;28;20372;-79
2021/04/01 09:14:27;;;;;;;8.38;4.20;;;;;;;;;;5066334;28;20116;-79
2021/04/01 09:17:04;;;;;;;8.38;4.28;;;;;;;;;;5065578;28;20037;-78
2021/04/01 09:19:30;;;;;;;11.90;4.78;;;;;;;;;;5068392;28;20415;-80
2021/04/01 09:21:57;;;;;;;10.70;6.40;;;;;;;;;;5068923;28;20037;-81
2021/04/01 09:24:32;;;;;;;7.53;3.83;;;;;;;;;;5069288;28;20016;-77
2021/04/01 09:26:58;;;;;;;9.73;4.20;;;;;;;;;;5068595;28;20477;-77
2021/04/01 09:29:25;;;;;;;9.05;3.70;;;;;;;;;;5068593;28;20108;-78
2021/04/01 09:31:56;;;;;;;10.40;3.72;;;;;;;;;;5068895;28;20423;-78
2021/04/01 09:34:23;;;;;;;7.03;3.13;;;;;;;;;;5068885;28;20544;-78
2021/04/01 09:36:50;;;;;;;12.20;5.80;;;;;;;;;;5069370;28;20108;-81
2021/04/01 09:39:26;;;;;;;9.88;4.05;;;;;;;;;;5068981;28;20016;-78
2021/04/01 09:43:13;;;;;;;6.97;3.90;;;;;;;;;;5069525;28;20903;-77
2021/04/01 09:45:40;;;;;;;7.60;3.75;;;;;;;;;;5069820;28;20059;-79
2021/04/01 09:48:06;;;;;;;10.52;4.35;;;;;;;;;;5067894;28;20031;-77
2021/04/01 09:50:34;;;;;;;18.48;4.50;;;;;;;;;;5063610;28;20017;-78
2021/04/01 09:54:39;;;;;;;8.55;3.83;;;;;;;;;;5066962;28;20387;-77
2021/04/01 09:57:06;;;;;;;10.25;4.15;;;;;;;;;;5065887;28;20107;-77
2021/04/01 10:00:09;;;;;;;7.65;4.35;;;;;;;;;;5069174;28;20020;-75
2021/04/01 10:02:30;;;;;;;8.45;4.03;;;;;;;;;;5066820;28;20025;-76
2021/04/01 10:06:00;;;;;;;6.57;3.45;;;;;;;;;;5069105;28;20367;-79
2021/04/01 10:08:27;;;;;;;14.93;5.93;;;;;;;;;;5055884;28;20117;-78
2021/04/01 10:10:55;;;;;;;11.10;4.43;;;;;;;;;;5049713;28;20025;-78
2021/04/01 10:13:21;;;;;;;7.40;4.53;;;;;;;;;;5049769;28;20021;-79
2021/04/01 10:15:48;;;;;;;8.52;4.50;;;;;;;;;;5049083;28;20021;-71
2021/04/01 10:18:15;;;;;;;8.93;4.18;;;;;;;;;;5049686;28;20033;-78
2021/04/01 10:20:47;;;;;;;8.25;4.30;;;;;;;;;;5049653;28;20037;-79
2021/04/01 10:23:14;;;;;;;9.77;3.42;;;;;;;;;;5049533;28;20025;-80
2021/04/01 10:25:51;;;;;;;7.70;4.28;;;;;;;;;;5050277;28;20065;-81
2021/04/01 10:28:42;;;;;;;6.55;3.40;;;;;;;;;;5049851;28;20377;-78
2021/04/01 10:33:20;;;;;;;8.57;4.57;;;;;;;;;;5066504;28;20383;-76
2021/04/01 10:35:48;;;;;;;9.35;4.35;;;;;;;;;;5057615;28;20032;-76
2021/04/01 10:38:15;;;;;;;8.05;4.22;;;;;;;;;;5053122;28;20021;-76
2021/04/01 10:40:42;;;;;;;5.93;3.50;;;;;;;;;;5047723;28;20486;-76
2021/04/01 10:43:09;;;;;;;7.93;4.05;;;;;;;;;;5048485;28;20105;-77
2021/04/01 10:45:39;;;;;;;6.55;3.70;;;;;;;;;;5041224;28;20060;-77
2021/04/01 10:48:33;;;;;;;6.57;3.90;;;;;;;;;;5049372;28;20630;-76
2021/04/01 10:52:13;;;;;;;8.85;4.45;;;;;;;;;;5070040;28;20384;-79
2021/04/01 10:54:48;;;;;;;7.28;3.60;;;;;;;;;;5069256;28;20048;-78
2021/04/01 10:57:35;;;;;;;5.53;3.15;;;;;;;;;;5069056;28;20031;-78
2021/04/01 11:02:18;;;;;;;7.30;3.90;;;;;;;;;;5069240;28;20437;-75
2021/04/01 11:04:54;;;;;;;9.88;5.13;;;;;;;;;;5068380;28;20086;-73
2021/04/01 11:07:20;;;;;;;7.65;4.53;;;;;;;;;;5069539;28;20032;-74
2021/04/01 11:09:49;;;;;;;7.47;3.75;;;;;;;;;;5067511;28;20050;-74
2021/04/01 11:12:18;;;;;;;7.03;3.50;;;;;;;;;;5068890;28;20389;-74
2021/04/01 11:14:45;;;;;;;7.32;3.17;;;;;;;;;;5069125;28;20492;-74
2021/04/01 11:17:14;;;;;;;6.57;3.60;;;;;;;;;;5068878;28;20029;-74
2021/04/01 11:19:41;;;;;;;7.05;3.80;;;;;;;;;;5068123;28;20029;-74
2021/04/01 11:22:07;;;;;;;9.52;4.30;;;;;;;;;;5067382;28;20040;-74
2021/04/01 11:24:37;;;;;;;7.20;3.63;;;;;;;;;;5059614;28;20024;-74
2021/04/01 11:27:11;;;;;;;7.10;3.38;;;;;;;;;;5048867;28;20096;-74
2021/04/01 11:29:37;;;;;;;7.38;4.20;;;;;;;;;;5048898;28;20091;-75
2021/04/01 11:32:14;;;;;;;7.20;3.80;;;;;;;;;;5048766;28;20477;-75
2021/04/01 11:34:42;;;;;;;6.63;3.92;;;;;;;;;;5047786;28;20033;-75
2021/04/01 11:37:10;;;;;;;6.35;3.65;;;;;;;;;;5048510;28;20082;-74
2021/04/01 11:39:40;;;;;;;9.32;3.78;;;;;;;;;;5061085;28;20025;-73
2021/04/01 11:42:10;;;;;;;6.40;3.17;;;;;;;;;;5065787;28;20053;-72
2021/04/01 11:44:38;;;;;;;6.47;3.50;;;;;;;;;;5067477;28;20322;-73
2021/04/01 11:47:13;;;;;;;10.07;4.75;;;;;;;;;;5066819;28;20708;-73
2021/04/01 11:49:40;;;;;;;8.07;4.53;;;;;;;;;;5069071;28;20024;-74
2021/04/01 11:52:10;;;;;;;6.80;3.13;;;;;;;;;;5068828;28;20032;-73
2021/04/01 11:54:37;;;;;;;7.85;3.28;;;;;;;;;;5066931;28;20025;-74
2021/04/01 11:57:15;;;;;;;9.18;3.53;;;;;;;;;;5068194;28;20021;-74
2021/04/01 11:59:44;;;;;;;8.50;3.03;;;;;;;;;;5066613;28;20049;-74
2021/04/01 12:02:12;;;;;;;6.45;3.30;;;;;;;;;;5066382;28;20049;-74
2021/04/01 12:04:40;;;;;;;6.60;3.30;;;;;;;;;;5068369;28;20044;-75
2021/04/01 12:07:09;;;;;;;6.85;3.58;;;;;;;;;;5068084;28;20109;-74
2021/04/01 12:09:35;;;;;;;8.55;3.55;;;;;;;;;;5068002;28;20028;-75
2021/04/01 12:12:01;;;;;;;8.95;3.78;;;;;;;;;;5063694;28;20078;-74
2021/04/01 12:14:38;;;;;;;6.18;2.80;;;;;;;;;;5055037;28;20389;-75
2021/04/01 12:17:05;;;;;;;7.20;3.40;;;;;;;;;;5054530;28;20501;-74
2021/04/01 12:19:32;;;;;;;5.03;2.47;;;;;;;;;;5054881;28;20545;-74
2021/04/01 12:21:58;;;;;;;5.88;2.78;;;;;;;;;;5054919;28;20037;-74
2021/04/01 12:24:24;;;;;;;5.63;3.03;;;;;;;;;;5054538;28;20028;-75
2021/04/01 12:26:51;;;;;;;7.10;3.45;;;;;;;;;;5054681;28;20053;-75
2021/04/01 12:29:18;;;;;;;6.35;3.13;;;;;;;;;;5053323;28;20051;-75
2021/04/01 12:31:56;;;;;;;6.55;3.25;;;;;;;;;;5053698;28;20029;-76
2021/04/01 12:34:32;;;;;;;6.03;2.70;;;;;;;;;;5054771;28;20482;-75
2021/04/01 12:37:02;;;;;;;4.90;3.03;;;;;;;;;;5054322;28;20032;-75
2021/04/01 12:39:33;;;;;;;6.60;3.10;;;;;;;;;;5055229;28;20017;-75
2021/04/01 12:41:59;;;;;;;5.20;2.90;;;;;;;;;;5054530;28;20112;-74
2021/04/01 12:44:39;;;;;;;7.90;2.90;;;;;;;;;;5053542;28;20513;-75
2021/04/01 12:47:05;;;;;;;4.50;2.55;;;;;;;;;;5054223;28;20431;-74
2021/04/01 12:49:38;;;;;;;6.63;2.60;;;;;;;;;;5054593;28;20017;-75
2021/04/01 12:52:06;;;;;;;7.85;3.22;;;;;;;;;;5054210;28;20104;-75
2021/04/01 12:54:36;;;;;;;5.80;3.47;;;;;;;;;;5054393;28;20025;-75
2021/04/01 12:57:11;;;;;;;5.65;3.30;;;;;;;;;;5054406;28;20025;-74
2021/04/01 12:59:44;;;;;;;8.25;2.97;;;;;;;;;;5053932;28;20029;-75
2021/04/01 13:02:13;;;;;;;10.30;4.25;;;;;;;;;;5053981;28;20068;-75
2021/04/01 13:04:42;;;;;;;6.80;3.75;;;;;;;;;;5052426;28;20035;-74
2021/04/01 13:12:08;;;;;;;5.78;3.05;;;;;;;;;;5053575;28;20497;-73
2021/04/01 13:14:35;;;;;;;5.85;3.13;;;;;;;;;;5053968;28;20040;-74
2021/04/01 13:17:01;;;;;;;5.63;2.33;;;;;;;;;;5054087;28;20025;-73
2021/04/01 13:19:27;;;;;;;8.45;3.22;;;;;;;;;;5053568;28;20028;-74
2021/04/01 13:22:22;;;;;;;7.75;3.60;;;;;;;;;;5053803;28;20116;-73
2021/04/01 13:25:06;;;;;;;10.73;4.05;;;;;;;;;;5052479;28;20082;-74
2021/04/01 13:27:30;;;;;;;5.13;2.83;;;;;;;;;;5053474;28;20029;-75
2021/04/01 13:30:00;;;;;;;5.97;3.22;;;;;;;;;;5052477;28;20121;-75
2021/04/01 13:32:37;;;;;;;7.88;3.30;;;;;;;;;;5053212;28;20071;-74
2021/04/01 13:37:35;;;;;;;8.00;3.25;;;;;;;;;;5053850;28;20067;-75
2021/04/01 13:40:11;;;;;;;6.30;3.25;;;;;;;;;;5053107;28;20134;-74
2021/04/01 13:42:38;;;;;;;6.43;3.15;;;;;;;;;;5053431;28;20067;-74
2021/04/01 13:45:17;;;;;;;8.35;2.92;;;;;;;;;;5053365;28;20030;-73
2021/04/01 13:47:45;;;;;;;4.82;2.95;;;;;;;;;;5053193;28;20481;-74
2021/04/01 13:50:15;;;;;;;7.90;2.92;;;;;;;;;;5053312;28;20024;-74
2021/04/01 13:55:30;;;;;;;7.10;3.15;;;;;;;;;;5053140;28;20548;-74
2021/04/01 14:11:20;;;;;;;7.10;3.25;;;;;;;;;;5053020;28;20029;-75
2021/04/01 14:13:46;;;;;;;8.38;3.15;;;;;;;;;;5052932;28;20385;-74
2021/04/01 14:16:16;;;;;;;7.15;2.60;;;;;;;;;;5052622;28;20477;-75
2021/04/01 14:18:45;;;;;;;5.90;2.53;;;;;;;;;;5052766;28;20025;-75
2021/04/01 14:21:11;;;;;;;5.78;2.70;;;;;;;;;;5052696;28;20036;-74
2021/04/01 14:23:38;;;;;;;6.40;3.17;;;;;;;;;;5052506;28;20025;-75
2021/04/01 14:26:32;;;;;;;5.47;2.85;;;;;;;;;;5052887;28;20036;-75
2021/04/01 14:28:51;;;;;;;7.25;3.13;;;;;;;;;;5051952;28;20029;-75
2021/04/01 14:31:18;;;;;;;6.80;2.58;;;;;;;;;;5052586;28;20028;-75
2021/04/01 14:33:45;;;;;;;4.82;2.67;;;;;;;;;;5052622;28;20023;-75
2021/04/01 14:36:12;;;;;;;3.08;2.10;;;;;;;;;;5051927;28;20021;-75
2021/04/01 14:38:40;;;;;;;5.00;2.63;;;;;;;;;;5052481;28;20020;-75
2021/04/01 14:43:58;;;;;;;8.75;3.63;;;;;;;;;;5052099;28;20422;-75
2021/04/01 14:46:24;;;;;;;6.63;3.67;;;;;;;;;;5052618;28;20044;-75
2021/04/01 14:48:51;;;;;;;8.75;3.50;;;;;;;;;;5051149;28;20104;-75
2021/04/01 14:51:17;;;;;;;9.50;3.80;;;;;;;;;;5051923;28;20029;-75
2021/04/01 14:53:49;;;;;;;9.00;4.40;;;;;;;;;;5052234;28;20516;-75
2021/04/01 14:56:17;;;;;;;7.05;4.22;;;;;;;;;;5052253;28;20025;-75
2021/04/01 14:58:47;;;;;;;7.70;3.72;;;;;;;;;;5051846;28;20378;-75
2021/04/01 15:01:15;;;;;;;12.45;5.63;;;;;;;;;;5051987;28;20079;-74
2021/04/01 15:03:42;;;;;;;8.20;3.95;;;;;;;;;;5052252;28;20017;-75
2021/04/01 15:06:12;;;;;;;8.00;4.85;;;;;;;;;;5051986;28;20025;-75
2021/04/01 15:08:38;;;;;;;8.82;4.80;;;;;;;;;;5052167;28;20150;-75
2021/04/01 15:11:05;;;;;;;8.27;4.70;;;;;;;;;;5051748;28;20032;-74
2021/04/01 15:13:32;;;;;;;10.48;5.88;;;;;;;;;;5052118;28;20032;-75
2021/04/01 15:15:58;;;;;;;73.70;42.38;;;;;;;;;;5050848;28;20021;-74
2021/04/01 15:18:25;;;;;;;36.80;24.50;;;;;;;;;;5051747;28;20423;-74
2021/04/01 15:20:52;;;;;;;9.57;5.05;;;;;;;;;;5052052;28;20120;-74
2021/04/01 15:23:18;;;;;;;9.48;4.68;;;;;;;;;;5052019;28;20036;-74
2021/04/01 15:25:45;;;;;;;6.15;3.80;;;;;;;;;;5051826;28;20045;-74
2021/04/01 15:28:11;;;;;;;7.28;3.83;;;;;;;;;;5052168;28;20070;-75
2021/04/01 15:30:37;;;;;;;7.95;4.35;;;;;;;;;;5051885;28;20051;-74
2021/04/01 15:33:04;;;;;;;7.32;3.75;;;;;;;;;;5050318;28;20035;-75
2021/04/01 15:35:30;;;;;;;8.40;3.95;;;;;;;;;;5051721;28;20028;-75
2021/04/01 15:37:56;;;;;;;7.70;4.15;;;;;;;;;;5051812;28;20025;-75
2021/04/01 15:40:23;;;;;;;7.28;3.35;;;;;;;;;;5051273;28;20401;-74
2021/04/01 15:42:49;;;;;;;7.38;3.95;;;;;;;;;;5051827;28;20025;-74
2021/04/01 15:45:15;;;;;;;10.18;5.07;;;;;;;;;;5051847;28;20044;-74
2021/04/01 15:47:41;;;;;;;8.23;4.65;;;;;;;;;;5053082;28;20025;-74
2021/04/01 15:50:08;;;;;;;11.50;6.38;;;;;;;;;;5055522;28;20025;-74
2021/04/01 15:52:35;;;;;;;10.52;6.18;;;;;;;;;;5055480;28;20029;-75
2021/04/01 15:55:01;;;;;;;10.07;6.20;;;;;;;;;;5055082;28;20028;-74
2021/04/01 15:57:27;;;;;;;11.70;5.28;;;;;;;;;;5055538;28;20032;-75
2021/04/01 15:59:53;;;;;;;9.75;5.32;;;;;;;;;;5055122;28;20017;-72
2021/04/01 16:02:20;;;;;;;10.70;5.95;;;;;;;;;;5054906;28;20025;-75
2021/04/01 16:04:48;;;;;;;9.13;5.15;;;;;;;;;;5055466;28;20029;-74
2021/04/01 16:07:14;;;;;;;9.32;4.88;;;;;;;;;;5055094;28;20021;-74
2021/04/01 16:09:40;;;;;;;8.48;4.82;;;;;;;;;;5053895;28;20068;-75
2021/04/01 16:12:07;;;;;;;8.93;5.05;;;;;;;;;;5055071;28;20100;-74
2021/04/01 16:14:33;;;;;;;8.55;5.10;;;;;;;;;;5053531;28;20023;-75
2021/04/01 16:16:59;;;;;;;9.05;4.80;;;;;;;;;;5055044;28;20029;-74
2021/04/01 16:19:25;;;;;;;8.30;4.57;;;;;;;;;;5054914;28;20017;-74
2021/04/01 16:21:52;;;;;;;11.60;6.45;;;;;;;;;;5054435;28;20112;-74
2021/04/01 16:24:18;;;;;;;14.00;7.70;;;;;;;;;;5054924;28;20492;-74
2021/04/01 16:26:44;;;;;;;15.02;8.80;;;;;;;;;;5055017;28;20053;-74
2021/04/01 16:29:10;;;;;;;13.95;9.60;;;;;;;;;;5054532;28;20521;-73
2021/04/01 16:31:37;;;;;;;23.35;16.35;;;;;;;;;;5054773;28;20029;-74
2021/04/01 16:34:04;;;;;;;32.65;21.58;;;;;;;;;;5055122;28;20017;-74
2021/04/01 16:36:34;;;;;;;23.08;16.60;;;;;;;;;;5054287;28;20428;-74
2021/04/01 16:39:00;;;;;;;16.63;11.68;;;;;;;;;;5054674;28;20020;-74
2021/04/01 16:41:27;;;;;;;22.17;17.15;;;;;;;;;;5054601;28;20033;-74
2021/04/01 16:43:53;;;;;;;16.67;11.10;;;;;;;;;;5054263;28;20424;-75
2021/04/01 16:46:20;;;;;;;19.60;13.43;;;;;;;;;;5054848;28;20104;-75
2021/04/01 16:48:46;;;;;;;18.65;13.63;;;;;;;;;;5054628;28;20021;-74
2021/04/01 16:51:13;;;;;;;21.65;10.20;;;;;;;;;;5054057;28;20082;-74
2021/04/01 16:53:54;;;;;;;21.25;14.18;;;;;;;;;;5054294;28;20025;-74
2021/04/01 16:56:21;;;;;;;19.58;12.20;;;;;;;;;;5054405;28;20053;-74
2021/04/01 16:58:48;;;;;;;25.73;14.40;;;;;;;;;;5054913;28;20429;-74
2021/04/01 17:01:14;;;;;;;22.90;13.43;;;;;;;;;;5054124;28;20067;-74